Time;durP1;ratioP1;P1;durP2;ratioP2;P2;SDS_P1;SDS_P2;PMS_P1;PMS_P2;Temp;Humidity;BMP_temperature;BMP_pressure;BME280_temperature;BME280_humidity;BME280_pressure;Samples;Min_cycle;Max_cycle;Signal;HPM_P1;HPM_P2
2023/09/04 00:01:21;;;;;;;3.30;2.00;;;;;;;19.91;56.96;101329.91;4974372;28;97123;-75
2023/09/04 00:03:47;;;;;;;7.80;2.42;;;;;;;19.89;57.07;101329.97;4971889;28;98655;-75
2023/09/04 00:06:12;;;;;;;3.47;2.38;;;;;;;19.89;57.03;101324.66;4972344;28;98412;-75
2023/09/04 00:08:38;;;;;;;4.32;2.30;;;;;;;19.85;56.94;101325.78;4971645;28;97143;-75
2023/09/04 00:11:03;;;;;;;2.72;1.85;;;;;;;19.83;56.98;101324.16;4972359;28;97309;-75
2023/09/04 00:13:29;;;;;;;6.43;2.70;;;;;;;19.81;57.03;101326.94;4971687;28;98952;-75
2023/09/04 00:15:56;;;;;;;5.10;2.35;;;;;;;19.78;57.02;101326.22;4971763;28;98162;-75
2023/09/04 00:18:24;;;;;;;4.43;3.00;;;;;;;19.79;57.07;101336.81;4970883;28;97229;-75
2023/09/04 00:20:52;;;;;;;5.43;3.47;;;;;;;19.75;57.23;101332.59;4971925;28;96868;-75
2023/09/04 00:23:17;;;;;;;5.80;2.75;;;;;;;19.74;57.29;101330.00;4972038;28;99097;-75
2023/09/04 00:25:43;;;;;;;7.38;2.80;;;;;;;19.70;57.42;101323.16;4972188;28;98544;-75
2023/09/04 00:28:09;;;;;;;3.38;2.40;;;;;;;19.69;57.67;101319.59;4971721;28;97060;-76
2023/09/04 00:30:34;;;;;;;7.32;2.90;;;;;;;19.67;57.84;101319.72;4969112;28;96808;-75
2023/09/04 00:33:02;;;;;;;5.50;2.85;;;;;;;19.66;57.85;101331.31;4971456;28;97658;-75
2023/09/04 00:35:28;;;;;;;3.80;2.30;;;;;;;19.62;57.89;101329.72;4971652;28;98458;-75
2023/09/04 00:37:54;;;;;;;2.80;2.25;;;;;;;19.59;58.00;101332.56;4971898;28;97451;-75
2023/09/04 00:40:19;;;;;;;4.78;2.70;;;;;;;19.62;58.12;101334.19;4971612;28;97374;-75
2023/09/04 00:42:45;;;;;;;3.58;2.63;;;;;;;19.62;58.08;101328.88;4971535;28;98739;-75
2023/09/04 00:45:13;;;;;;;3.40;3.10;;;;;;;19.63;58.06;101334.13;4972769;28;97313;-75
2023/09/04 00:47:40;;;;;;;5.35;3.08;;;;;;;19.62;58.21;101339.50;4975014;28;96617;-75
2023/09/04 00:50:11;;;;;;;7.82;3.95;;;;;;;19.61;58.39;101344.00;4975099;28;96963;-75
2023/09/04 00:52:36;;;;;;;4.20;3.17;;;;;;;19.58;58.38;101337.97;4974170;28;97990;-75
2023/09/04 00:55:05;;;;;;;9.73;3.95;;;;;;;19.58;58.42;101344.16;4961843;28;97827;-75
2023/09/04 00:57:31;;;;;;;7.65;4.20;;;;;;;19.58;58.35;101340.66;4973392;28;96780;-75
2023/09/04 00:59:57;;;;;;;3.88;3.58;;;;;;;19.58;58.41;101341.50;4973459;28;97510;-75
2023/09/04 01:02:22;;;;;;;7.53;4.60;;;;;;;19.59;58.74;101337.03;4973756;28;97530;-75
2023/09/04 01:04:48;;;;;;;5.47;4.97;;;;;;;19.57;58.54;101336.25;4973536;28;97165;-75
2023/09/04 01:07:14;;;;;;;4.78;4.07;;;;;;;19.56;58.65;101332.72;4973746;28;96802;-75
2023/09/04 01:09:40;;;;;;;5.88;4.75;;;;;;;19.55;58.74;101328.34;4974648;28;96966;-75
2023/09/04 01:12:15;;;;;;;7.70;3.88;;;;;;;19.56;58.77;101332.72;4969331;28;100939;-75
2023/09/04 01:14:44;;;;;;;6.32;5.22;;;;;;;19.52;58.69;101328.53;4965093;28;98291;-75
2023/09/04 01:17:11;;;;;;;4.13;3.75;;;;;;;19.45;58.86;101312.00;4973528;28;97098;-75
2023/09/04 01:19:38;;;;;;;9.55;4.53;;;;;;;19.42;58.76;101316.66;4973274;28;96917;-75
2023/09/04 01:22:08;;;;;;;6.15;4.55;;;;;;;19.42;58.58;101316.66;4972471;28;98958;-75
2023/09/04 01:24:34;;;;;;;7.32;6.60;;;;;;;19.38;59.10;101309.78;4974233;28;98353;-75
2023/09/04 01:27:04;;;;;;;30.65;27.85;;;;;;;19.35;59.10;101307.31;4973930;28;96631;-75
2023/09/04 01:29:34;;;;;;;11.77;10.73;;;;;;;19.31;58.80;101301.25;4974445;28;97011;-75
2023/09/04 01:32:05;;;;;;;2.85;2.08;;;;;;;19.29;59.10;101312.97;4962606;28;98804;-75
2023/09/04 01:34:36;;;;;;;3.90;2.42;;;;;;;19.22;59.26;101313.28;4964179;28;99092;-75
2023/09/04 01:37:02;;;;;;;6.23;2.30;;;;;;;19.19;59.31;101302.78;4974515;28;96799;-75
2023/09/04 01:39:27;;;;;;;8.20;2.30;;;;;;;19.16;59.61;101307.44;4973780;28;97204;-75
2023/09/04 01:41:53;;;;;;;6.03;2.45;;;;;;;19.12;59.47;101316.53;4973865;28;98662;-75
2023/09/04 01:44:19;;;;;;;5.60;2.20;;;;;;;19.08;59.65;101321.19;4973803;28;98584;-75
2023/09/04 01:46:45;;;;;;;7.03;2.30;;;;;;;19.05;59.75;101326.63;4972434;28;97842;-75
2023/09/04 01:49:11;;;;;;;4.55;1.95;;;;;;;19.03;59.96;101330.34;4972913;28;96868;-75
2023/09/04 01:51:36;;;;;;;6.03;2.45;;;;;;;19.01;59.89;101333.06;4974079;28;99083;-75
2023/09/04 01:54:02;;;;;;;6.05;2.58;;;;;;;18.97;59.96;101326.22;4973792;28;98670;-75
2023/09/04 01:56:27;;;;;;;2.92;2.13;;;;;;;18.97;60.11;101323.53;4969353;28;97442;-75
2023/09/04 01:58:53;;;;;;;6.38;2.60;;;;;;;18.94;60.26;101323.72;4964095;28;96909;-75
2023/09/04 02:01:18;;;;;;;4.25;2.40;;;;;;;18.92;60.30;101318.47;4972400;28;100445;-76
2023/09/04 02:03:44;;;;;;;3.10;2.17;;;;;;;18.92;60.22;101325.59;4974028;28;97746;-75
2023/09/04 02:06:10;;;;;;;3.40;2.13;;;;;;;18.89;60.28;101325.75;4974236;28;96703;-75
2023/09/04 02:08:36;;;;;;;8.88;2.67;;;;;;;18.85;60.52;101326.84;4973888;28;96913;-75
2023/09/04 02:11:02;;;;;;;5.10;1.98;;;;;;;18.84;60.46;101327.78;4955828;28;98847;-75
2023/09/04 02:13:28;;;;;;;5.25;2.60;;;;;;;18.75;60.91;101329.13;4973091;28;98785;-75
2023/09/04 02:15:53;;;;;;;3.55;2.47;;;;;;;18.72;61.10;101339.88;4972557;28;97038;-75
2023/09/04 02:18:19;;;;;;;3.97;2.20;;;;;;;18.68;61.02;101347.19;4972346;28;96947;-75
2023/09/04 02:20:46;;;;;;;7.15;2.53;;;;;;;18.65;61.23;101343.81;4955675;28;100491;-75
2023/09/04 02:23:12;;;;;;;4.78;2.10;;;;;;;18.58;61.42;101334.44;4972191;28;100099;-75
2023/09/04 02:25:37;;;;;;;6.85;2.30;;;;;;;18.58;61.54;101335.28;4973794;28;97319;-75
2023/09/04 02:28:03;;;;;;;5.07;2.17;;;;;;;18.58;61.33;101343.25;4973676;28;97077;-75
2023/09/04 02:30:29;;;;;;;6.68;2.42;;;;;;;18.58;61.57;101337.94;4972769;28;99205;-75
2023/09/04 02:32:58;;;;;;;6.82;2.80;;;;;;;18.58;61.57;101343.25;4973396;28;98518;-75
2023/09/04 02:35:25;;;;;;;4.75;2.47;;;;;;;18.55;61.72;101338.09;4971260;28;96941;-75
2023/09/04 02:37:51;;;;;;;6.78;2.53;;;;;;;18.51;61.55;101317.94;4973402;28;96743;-75
2023/09/04 02:40:17;;;;;;;4.00;2.10;;;;;;;18.49;61.70;101322.47;4971181;28;100331;-75
2023/09/04 02:42:42;;;;;;;3.85;2.45;;;;;;;18.50;61.76;101318.84;4973251;28;97675;-75
2023/09/04 02:45:08;;;;;;;6.10;2.28;;;;;;;18.49;61.70;101317.16;4972367;28;97127;-75
2023/09/04 02:47:37;;;;;;;5.88;2.75;;;;;;;18.43;61.91;101309.50;4973335;28;97254;-75
2023/09/04 02:50:06;;;;;;;3.60;2.80;;;;;;;18.41;62.02;101308.69;4972842;28;99071;-75
2023/09/04 02:52:33;;;;;;;4.43;2.42;;;;;;;18.38;62.18;101316.84;4972159;28;100259;-75
2023/09/04 02:54:59;;;;;;;7.40;3.00;;;;;;;18.35;62.04;101323.16;4972135;28;97109;-75
2023/09/04 02:57:25;;;;;;;5.35;2.63;;;;;;;18.33;62.12;101333.03;4973353;28;96810;-75
2023/09/04 02:59:51;;;;;;;5.78;2.97;;;;;;;18.27;62.45;101328.88;4970657;28;100408;-75
2023/09/04 03:02:17;;;;;;;8.07;3.20;;;;;;;18.28;62.55;101332.38;4973366;28;97321;-75
2023/09/04 03:04:42;;;;;;;5.05;2.50;;;;;;;18.25;62.69;101328.09;4973008;28;96867;-75
2023/09/04 03:07:08;;;;;;;6.28;2.90;;;;;;;18.23;62.57;101335.25;4971914;28;96992;-76
2023/09/04 03:09:33;;;;;;;8.48;2.50;;;;;;;18.21;62.45;101342.47;4972252;28;98552;-75
2023/09/04 03:11:59;;;;;;;3.58;2.20;;;;;;;18.19;62.57;101344.34;4965041;28;98842;-75
2023/09/04 03:14:26;;;;;;;5.10;2.67;;;;;;;18.16;62.81;101336.53;4971700;28;96936;-75
2023/09/04 03:16:52;;;;;;;7.20;2.90;;;;;;;18.17;62.79;101354.19;4971796;28;97528;-75
2023/09/04 03:19:18;;;;;;;5.22;3.25;;;;;;;18.16;62.62;101360.44;4971152;28;100394;-75
2023/09/04 03:21:43;;;;;;;5.43;2.75;;;;;;;18.17;63.04;101359.50;4972618;28;98780;-75
2023/09/04 03:24:09;;;;;;;9.73;3.40;;;;;;;18.16;63.12;101360.44;4972604;28;96820;-75
2023/09/04 03:26:34;;;;;;;7.90;3.00;;;;;;;18.18;63.13;101369.19;4972840;28;96827;-75
2023/09/04 03:29:00;;;;;;;4.68;2.65;;;;;;;18.19;63.30;101365.59;4970561;28;100666;-75
2023/09/04 03:31:26;;;;;;;5.18;3.00;;;;;;;18.21;63.13;101363.75;4972566;28;97916;-75
2023/09/04 03:33:51;;;;;;;6.60;3.63;;;;;;;18.20;63.36;101361.13;4971056;28;96837;-75
2023/09/04 03:36:17;;;;;;;6.25;3.15;;;;;;;18.21;63.14;101360.19;4971505;28;97186;-75
2023/09/04 03:38:43;;;;;;;8.27;3.40;;;;;;;18.20;63.32;101361.13;4971833;28;98728;-75
2023/09/04 03:41:08;;;;;;;6.18;3.35;;;;;;;18.23;63.20;101358.34;4971453;28;100195;-75
2023/09/04 03:43:34;;;;;;;4.82;3.35;;;;;;;18.23;63.06;101353.00;4970684;28;96904;-75
2023/09/04 03:46:00;;;;;;;7.25;3.30;;;;;;;18.22;63.26;101368.09;4971213;28;96908;-75
2023/09/04 03:48:26;;;;;;;6.72;3.72;;;;;;;18.18;63.42;101353.25;4971696;28;97753;-75
2023/09/04 03:50:51;;;;;;;7.07;3.63;;;;;;;18.20;63.37;101347.84;4969626;28;98478;-75
2023/09/04 03:53:17;;;;;;;9.77;3.25;;;;;;;18.16;63.50;101356.94;4972524;28;97097;-75
2023/09/04 03:55:42;;;;;;;5.97;3.30;;;;;;;18.17;63.39;101361.28;4972912;28;96865;-75
2023/09/04 03:58:08;;;;;;;7.30;3.17;;;;;;;18.19;63.41;101367.41;4971928;28;97571;-75
2023/09/04 04:00:34;;;;;;;6.03;3.30;;;;;;;18.17;63.25;101356.84;4971821;28;98706;-75
2023/09/04 04:03:00;;;;;;;6.05;3.03;;;;;;;18.18;63.26;101365.66;4972425;28;96845;-75
2023/09/04 04:05:27;;;;;;;5.00;3.47;;;;;;;18.17;63.21;101372.78;4970903;28;96985;-75
2023/09/04 04:07:53;;;;;;;7.50;3.50;;;;;;;18.15;63.33;101364.03;4970109;28;99482;-75
2023/09/04 04:10:19;;;;;;;5.88;3.00;;;;;;;18.16;63.40;101368.41;4965430;28;98439;-75
2023/09/04 04:12:46;;;;;;;8.75;3.50;;;;;;;18.17;63.43;101361.28;4969690;28;97000;-75
2023/09/04 04:15:12;;;;;;;6.35;3.40;;;;;;;18.18;63.28;101355.91;4972179;28;96977;-75
2023/09/04 04:17:38;;;;;;;7.22;3.53;;;;;;;18.19;63.30;101352.31;4971896;28;98973;-75
2023/09/04 04:20:11;;;;;;;11.32;4.25;;;;;;;18.19;63.33;101360.28;4971017;28;100478;-75
2023/09/04 04:22:37;;;;;;;11.55;4.00;;;;;;;18.19;63.50;101362.94;4975788;28;96985;-74
2023/09/04 04:25:03;;;;;;;5.07;3.38;;;;;;;18.20;63.46;101366.44;4975312;28;97079;-75
2023/09/04 04:27:28;;;;;;;6.65;3.50;;;;;;;18.22;63.41;101369.91;4974886;28;99002;-75
2023/09/04 04:29:55;;;;;;;12.18;3.63;;;;;;;18.25;63.54;101381.25;4973610;28;100217;-75
2023/09/04 04:32:24;;;;;;;5.85;3.70;;;;;;;18.29;63.57;101390.78;4973904;28;96812;-75
2023/09/04 04:34:50;;;;;;;5.43;3.45;;;;;;;18.29;63.38;101382.78;4963529;28;96797;-75
2023/09/04 04:37:15;;;;;;;8.27;3.30;;;;;;;18.37;63.40;101390.41;4973722;28;98765;-75
2023/09/04 04:39:43;;;;;;;6.63;3.25;;;;;;;18.41;63.14;101389.28;4973403;28;99645;-75
2023/09/04 04:42:08;;;;;;;5.70;3.20;;;;;;;18.41;63.17;101399.06;4974047;28;97382;-75
2023/09/04 04:44:34;;;;;;;7.60;4.40;;;;;;;18.42;63.15;101391.03;4957548;28;96927;-75
2023/09/04 04:47:00;;;;;;;10.30;7.28;;;;;;;18.47;63.18;101401.44;4973519;28;100165;-75
2023/09/04 04:49:26;;;;;;;8.30;4.63;;;;;;;18.45;63.12;101403.31;4974869;28;96631;-75
2023/09/04 04:51:51;;;;;;;10.88;4.00;;;;;;;18.44;63.28;101423.72;4973560;28;97305;-75
2023/09/04 04:54:19;;;;;;;8.65;3.70;;;;;;;18.47;63.10;101434.22;4975240;28;97209;-75
2023/09/04 04:56:47;;;;;;;9.63;4.03;;;;;;;18.42;63.26;101427.41;4973507;28;101006;-75
2023/09/04 04:59:13;;;;;;;8.77;3.80;;;;;;;18.42;63.26;101427.41;4974634;28;98293;-75
2023/09/04 05:01:38;;;;;;;9.93;3.60;;;;;;;18.45;63.18;101435.22;4978470;28;97342;-75
2023/09/04 05:04:04;;;;;;;9.75;3.80;;;;;;;18.44;63.37;101431.72;4973037;28;97518;-75
2023/09/04 05:06:33;;;;;;;13.35;3.80;;;;;;;18.45;63.27;101433.41;4973043;28;100640;-75
2023/09/04 05:08:58;;;;;;;6.38;3.85;;;;;;;18.46;63.30;101443.09;4973078;28;101017;-75
2023/09/04 05:11:24;;;;;;;12.25;3.90;;;;;;;18.49;63.12;101445.59;4973816;28;96873;-75
2023/09/04 05:13:50;;;;;;;18.00;4.60;;;;;;;18.52;63.29;101439.28;4967631;28;96835;-75
2023/09/04 05:16:16;;;;;;;13.45;4.57;;;;;;;18.54;63.07;101443.59;4974694;28;97302;-75
2023/09/04 05:18:41;;;;;;;12.10;4.90;;;;;;;18.56;63.04;101435.56;4972905;28;99926;-75
2023/09/04 05:21:07;;;;;;;10.77;4.38;;;;;;;18.61;62.92;101436.16;4973616;28;97212;-75
2023/09/04 05:23:36;;;;;;;8.18;4.45;;;;;;;18.67;63.01;101435.84;4972722;28;96809;-75
2023/09/04 05:26:02;;;;;;;11.57;4.38;;;;;;;18.85;62.31;101428.78;4972178;28;100710;-75
2023/09/04 05:28:28;;;;;;;8.60;4.40;;;;;;;19.14;61.89;101416.66;4973755;28;98468;-75
2023/09/04 05:30:54;;;;;;;18.35;4.78;;;;;;;19.30;61.38;101423.81;4974221;28;97112;-75
2023/09/04 05:33:20;;;;;;;6.85;4.30;;;;;;;19.40;61.07;101417.03;4974615;28;96836;-75
2023/09/04 05:35:54;;;;;;;10.45;5.15;;;;;;;19.45;61.06;101413.19;4973873;28;98659;-75
2023/09/04 05:38:20;;;;;;;7.55;4.35;;;;;;;19.39;61.02;101424.16;4973094;28;97855;-75
2023/09/04 05:41:00;;;;;;;10.10;4.45;;;;;;;19.44;61.36;101422.13;4973680;28;96926;-75
2023/09/04 05:43:25;;;;;;;9.20;4.68;;;;;;;19.68;60.67;101429.75;4971312;28;96781;-75
2023/09/04 05:45:51;;;;;;;9.93;4.70;;;;;;;19.93;59.97;101431.09;4973797;28;98954;-75
2023/09/04 05:48:16;;;;;;;11.85;4.40;;;;;;;20.09;59.58;101432.78;4973987;28;98226;-75
2023/09/04 05:50:42;;;;;;;7.32;4.10;;;;;;;20.27;59.05;101436.22;4973530;28;96995;-75
2023/09/04 05:53:07;;;;;;;11.38;3.88;;;;;;;20.41;58.62;101431.91;4974080;28;96888;-76
2023/09/04 05:55:36;;;;;;;7.25;4.13;;;;;;;20.40;58.18;101433.72;4973760;28;99073;-79
2023/09/04 05:58:02;;;;;;;6.82;3.83;;;;;;;20.52;58.13;101442.81;4973945;28;98453;-77
2023/09/04 06:00:28;;;;;;;9.25;3.45;;;;;;;20.79;57.44;101433.22;4976088;28;97087;-77
2023/09/04 06:02:56;;;;;;;11.88;6.25;;;;;;;21.01;56.91;101424.78;4966007;28;97090;-76
2023/09/04 06:05:22;;;;;;;9.80;3.90;;;;;;;21.16;56.51;101432.81;4973657;28;98715;-76
2023/09/04 06:07:47;;;;;;;6.70;3.20;;;;;;;21.26;56.39;101423.28;4974039;28;98837;-76
2023/09/04 06:10:13;;;;;;;6.72;3.15;;;;;;;21.40;55.69;101431.34;4973214;28;96835;-76
2023/09/04 06:12:38;;;;;;;7.10;3.03;;;;;;;21.41;55.43;101437.53;4973806;28;96831;-76
2023/09/04 06:15:04;;;;;;;6.32;2.63;;;;;;;21.54;55.19;101425.16;4972683;28;98643;-76
2023/09/04 06:17:31;;;;;;;6.75;2.80;;;;;;;21.89;54.57;101436.25;4973570;28;98281;-76
2023/09/04 06:19:56;;;;;;;8.13;2.80;;;;;;;22.19;53.87;101431.75;4973275;28;96880;-76
2023/09/04 06:22:22;;;;;;;9.98;3.25;;;;;;;22.51;53.34;101430.47;4973703;28;96849;-76
2023/09/04 06:24:48;;;;;;;17.02;4.60;;;;;;;23.08;52.09;101434.69;4973222;28;98719;-76
2023/09/04 06:27:14;;;;;;;8.80;3.30;;;;;;;23.45;51.27;101432.97;4972865;28;99050;-76
2023/09/04 06:29:39;;;;;;;6.88;2.50;;;;;;;23.83;50.34;101425.88;4973446;28;96679;-76
2023/09/04 06:32:05;;;;;;;7.80;3.28;;;;;;;24.24;49.21;101428.19;4973601;28;97014;-76
2023/09/04 06:34:31;;;;;;;4.68;2.28;;;;;;;25.26;47.57;101429.44;4973202;28;98739;-76
2023/09/04 06:36:56;;;;;;;11.55;3.10;;;;;;;27.16;43.71;101432.63;4972740;28;98775;-76
2023/09/04 06:39:22;;;;;;;7.18;3.85;;;;;;;29.25;40.19;101425.31;4972703;28;97108;-76
2023/09/04 06:41:49;;;;;;;3.63;2.38;;;;;;;30.83;37.33;101431.34;4973474;28;96849;-76
2023/09/04 06:44:17;;;;;;;9.37;6.80;;;;;;;32.47;34.18;101418.56;4970803;28;100895;-77
2023/09/04 06:46:42;;;;;;;7.82;2.85;;;;;;;32.97;33.29;101435.69;4973021;28;98589;-77
2023/09/04 06:49:08;;;;;;;5.32;2.10;;;;;;;32.99;33.48;101437.25;4973343;28;97202;-77
2023/09/04 06:51:34;;;;;;;5.82;2.05;;;;;;;32.55;34.06;101436.72;4973272;28;97409;-77
2023/09/04 06:53:59;;;;;;;8.93;2.25;;;;;;;31.71;34.69;101441.25;4972851;28;98867;-76
2023/09/04 06:56:25;;;;;;;4.85;2.10;;;;;;;32.25;33.78;101436.31;4973243;28;98293;-77
2023/09/04 06:58:51;;;;;;;7.10;2.55;;;;;;;33.38;32.51;101428.31;4973006;28;96759;-77
2023/09/04 07:01:17;;;;;;;8.02;2.95;;;;;;;34.55;30.32;101431.13;4972857;28;97249;-76
2023/09/04 07:03:42;;;;;;;7.47;3.38;;;;;;;35.17;30.03;101427.31;4964093;28;99137;-76
2023/09/04 07:06:08;;;;;;;5.68;2.17;;;;;;;36.40;28.34;101419.22;4970314;28;98511;-77
2023/09/04 07:08:34;;;;;;;4.40;1.92;;;;;;;36.12;28.28;101427.34;4972928;28;96813;-77
2023/09/04 07:10:59;;;;;;;4.68;1.90;;;;;;;36.14;28.23;101419.81;4973122;28;97528;-77
2023/09/04 07:13:25;;;;;;;4.40;2.10;;;;;;;35.26;29.00;101426.22;4971004;28;98745;-76
2023/09/04 07:15:50;;;;;;;2.97;1.40;;;;;;;33.85;30.66;101430.19;4972382;28;98585;-76
2023/09/04 07:18:16;;;;;;;7.80;1.85;;;;;;;32.68;31.68;101431.63;4972980;28;96758;-77
2023/09/04 07:20:41;;;;;;;4.65;1.50;;;;;;;31.69;32.71;101427.81;4972983;28;96781;-76
2023/09/04 07:23:07;;;;;;;5.13;1.65;;;;;;;31.04;34.10;101444.56;4972785;28;98648;-76
2023/09/04 07:25:34;;;;;;;4.32;1.88;;;;;;;30.50;35.01;101451.03;4972190;28;98435;-76
2023/09/04 07:27:59;;;;;;;4.03;1.67;;;;;;;29.74;35.64;101438.69;4972262;28;97370;-76
2023/09/04 07:30:25;;;;;;;4.90;2.05;;;;;;;29.30;36.78;101436.56;4972433;28;96643;-77
2023/09/04 07:32:50;;;;;;;3.42;2.17;;;;;;;29.22;37.04;101447.25;4972639;28;98984;-76
2023/09/04 07:35:16;;;;;;;5.45;2.20;;;;;;;29.07;37.46;101446.00;4972193;28;98416;-76
2023/09/04 07:37:41;;;;;;;3.70;1.98;;;;;;;28.92;37.97;101444.75;4972611;28;97327;-76
2023/09/04 07:40:08;;;;;;;8.27;1.85;;;;;;;28.77;37.84;101449.72;4972301;28;96926;-76
2023/09/04 07:42:33;;;;;;;3.33;1.63;;;;;;;28.81;38.10;101441.19;4972106;28;98624;-76
2023/09/04 07:44:59;;;;;;;6.38;2.40;;;;;;;28.85;37.58;101448.00;4972571;28;98346;-76
2023/09/04 07:47:24;;;;;;;9.40;2.22;;;;;;;28.64;38.55;101447.31;4972516;28;97348;-76
2023/09/04 07:49:52;;;;;;;7.82;2.05;;;;;;;28.41;38.75;101449.41;4972049;28;96832;-76
2023/09/04 07:52:18;;;;;;;9.80;4.20;;;;;;;28.60;38.48;101444.06;4971387;28;99016;-76
2023/09/04 07:54:44;;;;;;;8.23;3.42;;;;;;;29.00;38.39;101448.41;4970467;28;98418;-77
2023/09/04 07:57:10;;;;;;;3.67;3.13;;;;;;;29.91;36.82;101439.75;4966055;28;97137;-83
2023/09/04 07:59:36;;;;;;;6.38;4.18;;;;;;;30.20;36.87;101447.69;4971921;28;96938;-83
2023/09/04 08:02:03;;;;;;;8.13;5.03;;;;;;;30.82;35.66;101442.38;4973576;28;99301;-81
2023/09/04 08:04:29;;;;;;;5.28;4.88;;;;;;;31.40;35.16;101449.91;4971864;28;98544;-83
2023/09/04 08:06:56;;;;;;;4.93;4.53;;;;;;;31.54;34.83;101445.75;4969498;28;97180;-83
2023/09/04 08:09:22;;;;;;;7.95;4.13;;;;;;;31.60;34.31;101438.81;4972311;28;96871;-81
2023/09/04 08:11:47;;;;;;;5.85;4.07;;;;;;;31.47;34.71;101447.38;4971447;28;98860;-81
2023/09/04 08:14:13;;;;;;;5.75;4.55;;;;;;;31.37;34.78;101444.81;4969845;28;98680;-81
2023/09/04 08:16:38;;;;;;;5.72;3.60;;;;;;;31.89;33.93;101441.97;4971822;28;97343;-81
2023/09/04 08:19:04;;;;;;;7.97;3.97;;;;;;;32.72;33.43;101443.84;4970141;28;97470;-81
2023/09/04 08:21:29;;;;;;;7.78;6.63;;;;;;;32.76;33.11;101452.53;4963426;28;99736;-81
2023/09/04 08:23:55;;;;;;;8.90;7.38;;;;;;;32.37;33.36;101448.56;4971001;28;98730;-80
2023/09/04 08:26:20;;;;;;;7.45;6.95;;;;;;;31.85;34.39;101462.31;4967520;28;98083;-76
2023/09/04 08:28:46;;;;;;;6.93;6.32;;;;;;;31.48;34.87;101473.53;4965183;28;97271;-76
2023/09/04 08:31:12;;;;;;;8.48;7.68;;;;;;;30.56;35.61;101470.22;4970627;28;98640;-76
2023/09/04 08:33:38;;;;;;;8.25;7.55;;;;;;;30.11;36.53;101462.97;4970907;28;98663;-76
2023/09/04 08:36:03;;;;;;;10.77;7.72;;;;;;;29.62;37.50;101473.19;4971246;28;97752;-76
2023/09/04 08:38:29;;;;;;;8.43;7.68;;;;;;;29.29;37.67;101469.13;4970781;28;96983;-76
2023/09/04 08:40:56;;;;;;;8.70;7.80;;;;;;;29.47;38.20;101470.09;4970398;28;98667;-76
2023/09/04 08:43:22;;;;;;;8.63;7.82;;;;;;;29.56;37.94;101471.91;4970479;28;98425;-76
2023/09/04 08:45:49;;;;;;;8.57;6.43;;;;;;;29.63;37.33;101468.63;4970821;28;97258;-76
2023/09/04 08:48:16;;;;;;;8.52;6.90;;;;;;;29.60;37.53;101463.50;4971647;28;96811;-76
2023/09/04 08:50:42;;;;;;;8.48;7.88;;;;;;;30.52;36.37;101460.72;4970064;28;97768;-76
2023/09/04 08:53:08;;;;;;;14.68;8.40;;;;;;;31.23;35.46;101456.22;4971588;28;98323;-76
2023/09/04 08:55:34;;;;;;;9.73;8.70;;;;;;;30.77;35.32;101458.22;5003155;28;97005;-76
2023/09/04 08:58:00;;;;;;;10.45;9.57;;;;;;;30.29;35.99;101463.03;4972263;28;96864;-77
2023/09/04 09:00:25;;;;;;;10.07;9.27;;;;;;;30.08;36.79;101457.00;4972865;28;99077;-76
2023/09/04 09:02:51;;;;;;;12.75;11.90;;;;;;;29.76;37.34;101469.16;4974297;28;98692;-76
2023/09/04 09:05:17;;;;;;;9.18;7.22;;;;;;;29.61;37.37;101467.88;4969336;28;96880;-77
2023/09/04 09:07:44;;;;;;;8.40;7.70;;;;;;;29.24;37.85;101469.59;4974402;28;97222;-76
2023/09/04 09:10:14;;;;;;;8.95;8.30;;;;;;;28.76;38.56;101470.47;4968014;28;98705;-75
2023/09/04 09:12:39;;;;;;;7.18;5.47;;;;;;;28.47;38.64;101464.22;4972588;28;98558;-76
2023/09/04 09:15:05;;;;;;;17.85;15.82;;;;;;;30.62;35.78;101460.63;4973036;28;97175;-76
2023/09/04 09:17:31;;;;;;;4.50;2.25;;;;;;;33.19;32.79;101459.47;4972751;28;97218;-76
2023/09/04 09:19:56;;;;;;;4.15;1.75;;;;;;;35.87;29.79;101447.81;4972453;28;98783;-77
2023/09/04 09:22:22;;;;;;;5.18;2.03;;;;;;;37.02;28.63;101450.50;4972238;28;98719;-77
2023/09/04 09:24:54;;;;;;;6.15;1.75;;;;;;;37.73;27.09;101446.72;4974199;28;97082;-75
2023/09/04 09:27:21;;;;;;;3.92;2.20;;;;;;;37.78;26.81;101447.78;4961947;28;97563;-75
2023/09/04 09:29:48;;;;;;;5.25;1.80;;;;;;;39.07;25.03;101441.28;4980047;28;99251;-77
2023/09/04 09:32:18;;;;;;;3.78;1.70;;;;;;;39.29;24.67;101433.63;4972722;28;98235;-76
2023/09/04 09:34:55;;;;;;;4.55;1.77;;;;;;;37.64;26.52;101437.00;4957772;28;97316;-76
2023/09/04 09:37:22;;;;;;;5.70;2.13;;;;;;;35.62;27.61;101439.97;4960207;28;98118;-78
2023/09/04 09:39:48;;;;;;;6.55;1.80;;;;;;;34.39;28.44;101443.84;4971500;28;98794;-76
2023/09/04 09:42:13;;;;;;;2.95;1.58;;;;;;;34.05;29.58;101446.94;4971675;28;98541;-78
2023/09/04 09:44:39;;;;;;;4.32;1.60;;;;;;;34.17;30.09;101444.66;4971019;28;97162;-77
2023/09/04 09:54:51;;;;;;;4.07;1.95;;;;;;;32.02;33.22;101445.09;4965124;28;96971;-77
2023/09/04 09:57:18;;;;;;;3.67;2.08;;;;;;;31.86;33.25;101433.31;4967121;28;96796;-75
2023/09/04 09:59:48;;;;;;;4.35;2.88;;;;;;;31.58;33.65;101433.53;4976414;28;97235;-76
2023/09/04 10:02:18;;;;;;;5.15;2.08;;;;;;;31.43;33.17;101436.03;4958860;28;98692;-76
2023/09/04 10:04:44;;;;;;;2.38;1.52;;;;;;;31.25;33.84;101438.78;4972836;28;99049;-75
2023/09/04 10:07:15;;;;;;;2.22;1.63;;;;;;;31.20;33.83;101432.13;4973047;28;96741;-75
2023/09/04 10:09:45;;;;;;;3.97;1.63;;;;;;;30.94;33.93;101430.25;4970019;28;97281;-75
2023/09/04 10:12:19;;;;;;;4.68;1.70;;;;;;;30.86;34.14;101435.63;4974129;28;99074;-75
2023/09/04 10:14:45;;;;;;;4.72;1.63;;;;;;;30.61;34.43;101434.56;4972714;28;98266;-75
2023/09/04 10:17:21;;;;;;;3.30;1.48;;;;;;;30.50;35.58;101430.22;4974430;28;96916;-75
2023/09/04 10:19:47;;;;;;;3.58;1.83;;;;;;;29.92;36.04;101436.88;4974479;28;96746;-76
2023/09/04 10:22:29;;;;;;;2.80;1.70;;;;;;;29.79;35.65;101425.56;4976552;28;98788;-75
2023/09/04 10:25:04;;;;;;;3.40;1.65;;;;;;;29.92;36.24;101425.19;4974994;28;98637;-75
2023/09/04 10:31:25;;;;;;;5.30;1.70;;;;;;;29.73;35.96;101420.72;4975628;28;97014;-77
2023/09/04 10:33:53;;;;;;;3.28;1.75;;;;;;;29.45;35.47;101427.97;5004392;28;99020;-77
2023/09/04 10:36:49;;;;;;;3.08;1.80;;;;;;;29.24;36.07;101423.63;4966727;28;97928;-77
2023/09/04 10:39:28;;;;;;;7.88;2.08;;;;;;;29.12;36.46;101416.72;4963898;28;97113;-76
2023/09/04 10:41:54;;;;;;;2.63;1.77;;;;;;;28.98;36.87;101409.88;4975633;28;97490;-77
2023/09/04 10:44:48;;;;;;;3.92;1.60;;;;;;;28.80;36.68;101408.94;4968705;28;98913;-77
2023/09/04 10:47:15;;;;;;;6.15;2.22;;;;;;;28.72;38.02;101411.50;4970261;28;98443;-77
2023/09/04 10:49:44;;;;;;;10.15;3.80;;;;;;;28.72;38.30;101404.22;4974596;28;97775;-76
2023/09/04 10:52:10;;;;;;;3.63;1.73;;;;;;;28.63;37.73;101407.81;4969531;28;96824;-76
2023/09/04 10:54:36;;;;;;;11.68;3.95;;;;;;;28.43;37.85;101398.84;4978224;28;98714;-77
2023/09/04 10:57:07;;;;;;;6.68;2.60;;;;;;;28.28;37.93;101394.84;4971703;28;98458;-76
2023/09/04 10:59:55;;;;;;;6.95;3.15;;;;;;;28.05;38.19;101386.16;4972548;28;97017;-76
2023/09/04 11:02:29;;;;;;;8.00;3.25;;;;;;;27.93;39.35;101383.59;4972817;28;96942;-77
2023/09/04 11:04:55;;;;;;;10.50;3.38;;;;;;;27.83;39.55;101387.25;4971471;28;99245;-77
2023/09/04 11:07:20;;;;;;;7.82;2.75;;;;;;;27.81;39.45;101384.72;4972389;28;98747;-77
2023/09/04 11:10:13;;;;;;;7.07;2.30;;;;;;;27.74;39.47;101384.34;4973465;28;96832;-77
2023/09/04 11:12:39;;;;;;;7.57;2.92;;;;;;;27.78;39.36;101379.56;4955523;28;97130;-77
2023/09/04 11:15:11;;;;;;;6.20;2.45;;;;;;;27.68;39.65;101381.38;4970987;28;98764;-77
2023/09/04 11:17:38;;;;;;;4.63;2.10;;;;;;;27.58;39.86;101384.03;4974512;28;98528;-79
2023/09/04 11:20:04;;;;;;;3.55;2.20;;;;;;;27.57;39.99;101386.84;4965018;28;96923;-78
2023/09/04 11:22:33;;;;;;;7.18;2.33;;;;;;;27.33;38.71;101379.97;4969317;28;96874;-81
2023/09/04 11:24:58;;;;;;;3.85;1.70;;;;;;;27.20;39.35;101382.91;4969351;28;99118;-80
2023/09/04 11:27:25;;;;;;;8.48;2.72;;;;;;;27.20;40.24;101390.09;4966039;28;98491;-82
2023/09/04 11:29:52;;;;;;;4.10;1.88;;;;;;;27.18;40.38;101386.72;4969075;28;96755;-75
2023/09/04 11:32:18;;;;;;;4.78;1.50;;;;;;;27.01;40.01;101393.53;4971775;28;97111;-76
2023/09/04 11:34:45;;;;;;;3.15;2.63;;;;;;;26.96;39.85;101387.69;4971370;28;98734;-78